Time;durP1;ratioP1;P1;durP2;ratioP2;P2;SDS_P1;SDS_P2;PMS_P1;PMS_P2;Temp;Humidity;BMP_temperature;BMP_pressure;BME280_temperature;BME280_humidity;BME280_pressure;Samples;Min_cycle;Max_cycle;Signal;HPM_P1;HPM_P2
2024/02/03 00:01:26;;;;;;;14.30;4.18;;;;;;;7.93;100.00;102711.66;6083273;19;20049;-72
2024/02/03 00:03:31;;;;;;;15.40;4.60;;;;;;;7.92;100.00;102713.38;6082590;19;20003;-73
2024/02/03 00:05:34;;;;;;;11.48;4.30;;;;;;;7.95;100.00;102709.88;6079584;19;20005;-73
2024/02/03 00:07:39;;;;;;;12.43;4.88;;;;;;;8.00;100.00;102706.41;6082418;19;20042;-72
2024/02/03 00:09:47;;;;;;;12.48;4.35;;;;;;;8.04;100.00;102705.53;6081758;19;20545;-71
2024/02/03 00:11:53;;;;;;;16.63;4.43;;;;;;;8.06;100.00;102702.94;6080900;19;20016;-72
2024/02/03 00:13:58;;;;;;;12.98;3.80;;;;;;;8.09;100.00;102700.31;6083056;19;20014;-72
2024/02/03 00:16:03;;;;;;;9.25;4.57;;;;;;;8.12;100.00;102701.16;6081963;19;20031;-73
2024/02/03 00:18:06;;;;;;;12.15;4.07;;;;;;;8.14;100.00;102701.19;6081530;19;22543;-72
2024/02/03 00:20:14;;;;;;;13.77;5.30;;;;;;;8.17;100.00;102706.41;6079766;19;20007;-71
2024/02/03 00:22:19;;;;;;;15.40;4.22;;;;;;;8.18;100.00;102702.91;6084203;19;20027;-72
2024/02/03 00:24:22;;;;;;;19.40;4.05;;;;;;;8.19;100.00;102702.06;6082772;19;20015;-72
2024/02/03 00:26:30;;;;;;;10.68;4.55;;;;;;;8.18;100.00;102697.66;6081988;19;20018;-74
2024/02/03 00:28:35;;;;;;;13.20;4.05;;;;;;;8.21;100.00;102695.03;6083481;19;20033;-73
2024/02/03 00:30:40;;;;;;;14.10;4.35;;;;;;;8.21;100.00;102697.66;6088024;19;20018;-73
2024/02/03 00:32:45;;;;;;;19.45;4.70;;;;;;;8.22;100.00;102696.81;6087263;19;20479;-72
2024/02/03 00:34:51;;;;;;;16.48;4.22;;;;;;;8.20;100.00;102695.94;6084771;19;20007;-72
2024/02/03 00:36:57;;;;;;;9.45;3.55;;;;;;;8.20;100.00;102690.69;6085404;19;20027;-72
2024/02/03 00:39:02;;;;;;;9.18;3.42;;;;;;;8.26;100.00;102695.91;6086775;19;20357;-72
2024/02/03 00:41:09;;;;;;;10.48;3.85;;;;;;;8.26;100.00;102695.03;6086741;19;20762;-71
2024/02/03 00:43:17;;;;;;;11.68;4.35;;;;;;;8.26;100.00;102698.53;6086394;19;20018;-72
2024/02/03 00:45:23;;;;;;;11.55;3.40;;;;;;;8.30;100.00;102697.66;6087737;19;20010;-71
2024/02/03 00:47:28;;;;;;;18.88;4.88;;;;;;;8.29;100.00;102685.47;6090300;19;20502;-71
2024/02/03 00:49:31;;;;;;;18.73;4.35;;;;;;;8.28;100.00;102693.31;6089626;19;20289;-72
2024/02/03 00:51:36;;;;;;;14.55;4.88;;;;;;;8.27;100.00;102683.72;6091294;19;20416;-72
2024/02/03 00:53:43;;;;;;;15.60;4.55;;;;;;;8.27;100.00;102675.84;6086551;19;20787;-71
2024/02/03 00:55:46;;;;;;;14.00;3.95;;;;;;;8.27;100.00;102681.09;6089938;19;20013;-72
2024/02/03 00:57:51;;;;;;;10.40;3.80;;;;;;;8.25;100.00;102681.09;6087068;19;20007;-71
2024/02/03 00:59:56;;;;;;;11.15;4.43;;;;;;;8.28;100.00;102683.69;6089978;19;20023;-71
2024/02/03 01:02:01;;;;;;;13.38;3.70;;;;;;;8.29;100.00;102676.69;6088644;19;20094;-72
2024/02/03 01:04:09;;;;;;;19.42;3.90;;;;;;;8.30;100.00;102681.94;6088122;19;20014;-72
2024/02/03 01:06:15;;;;;;;9.52;3.67;;;;;;;8.29;100.00;102682.84;6083015;19;20010;-72
2024/02/03 01:08:18;;;;;;;19.17;4.10;;;;;;;8.30;100.00;102683.72;6088831;19;20034;-71
2024/02/03 01:10:22;;;;;;;;;;;;;;;8.34;100.00;102675.81;6086952;19;20006;-72
2024/02/03 01:12:31;;;;;;;20.90;4.38;;;;;;;8.37;100.00;102674.94;6087421;19;19914;-71
2024/02/03 01:14:33;;;;;;;16.48;3.97;;;;;;;8.36;100.00;102671.47;6088198;19;20010;-72
2024/02/03 01:16:44;;;;;;;12.10;3.97;;;;;;;8.38;100.00;102667.97;6087585;19;20810;-71
2024/02/03 01:18:49;;;;;;;8.43;3.35;;;;;;;8.37;100.00;102672.31;6085969;19;20434;-72
2024/02/03 01:20:54;;;;;;;13.75;3.95;;;;;;;8.42;100.00;102667.13;6085569;19;20392;-71
2024/02/03 01:23:00;;;;;;;8.70;3.58;;;;;;;8.40;100.00;102659.28;6090780;19;20030;-72
2024/02/03 01:25:05;;;;;;;11.18;3.63;;;;;;;8.42;100.00;102656.63;6089932;19;20011;-72
2024/02/03 01:27:08;;;;;;;12.70;3.53;;;;;;;8.43;100.00;102650.53;6087528;19;20010;-72
2024/02/03 01:29:13;;;;;;;11.15;3.53;;;;;;;8.46;100.00;102659.25;6088668;19;20040;-72
2024/02/03 01:31:18;;;;;;;9.93;3.38;;;;;;;8.47;100.00;102667.97;6087091;19;20089;-72
2024/02/03 01:33:28;;;;;;;9.60;3.47;;;;;;;8.50;100.00;102667.97;6087478;19;20074;-71
2024/02/03 01:35:33;;;;;;;6.72;2.55;;;;;;;8.53;100.00;102662.72;6088273;19;20006;-72
2024/02/03 01:37:39;;;;;;;9.27;3.58;;;;;;;8.55;100.00;102672.31;6088087;19;20002;-72
2024/02/03 01:39:44;;;;;;;9.32;3.20;;;;;;;8.57;100.00;102672.31;6087567;19;20009;-72
2024/02/03 01:41:50;;;;;;;11.07;2.88;;;;;;;8.62;100.00;102662.69;6086981;19;20010;-72
2024/02/03 01:43:55;;;;;;;8.30;3.67;;;;;;;8.63;100.00;102664.44;6090602;19;20092;-72
2024/02/03 01:46:03;;;;;;;12.20;3.53;;;;;;;8.65;100.00;102656.56;6085289;19;20010;-72
2024/02/03 01:48:09;;;;;;;15.07;4.05;;;;;;;8.67;100.00;102655.69;6089746;19;20014;-72
2024/02/03 01:50:17;;;;;;;12.18;3.17;;;;;;;8.66;100.00;102651.34;6087303;19;20733;-71
2024/02/03 01:52:25;;;;;;;8.70;3.42;;;;;;;8.67;100.00;102649.59;6085348;19;20011;-71
2024/02/03 01:54:35;;;;;;;11.80;2.97;;;;;;;8.67;100.00;102658.31;6087979;19;20031;-72
2024/02/03 01:56:46;;;;;;;9.55;2.90;;;;;;;8.70;100.00;102654.81;6086470;19;20483;-72
2024/02/03 01:58:51;;;;;;;7.22;3.13;;;;;;;8.72;100.00;102655.69;6084072;19;20016;-72
2024/02/03 02:00:55;;;;;;;12.75;3.80;;;;;;;8.74;100.00;102649.56;6085407;19;20011;-72
2024/02/03 02:03:01;;;;;;;7.50;3.03;;;;;;;8.84;100.00;102649.50;6085701;19;20016;-72
2024/02/03 02:05:07;;;;;;;11.40;3.25;;;;;;;8.81;100.00;102652.16;6085607;19;20005;-72
2024/02/03 02:07:15;;;;;;;8.43;3.05;;;;;;;8.77;100.00;102654.78;6085756;19;20007;-73
2024/02/03 02:09:23;;;;;;;12.48;3.17;;;;;;;8.77;100.00;102646.06;6086926;19;20087;-72
2024/02/03 02:11:31;;;;;;;8.95;3.58;;;;;;;8.84;100.00;102652.13;6088440;19;20044;-72
2024/02/03 02:13:39;;;;;;;11.73;2.88;;;;;;;8.83;100.00;102653.03;6088242;19;20022;-72
2024/02/03 02:15:44;;;;;;;16.30;3.10;;;;;;;8.83;100.00;102658.25;6087316;19;20002;-72
2024/02/03 02:17:50;;;;;;;8.40;2.75;;;;;;;8.78;100.00;102653.03;6086104;19;20017;-72
2024/02/03 02:19:56;;;;;;;7.10;2.10;;;;;;;8.84;100.00;102654.75;6087868;19;20007;-72
2024/02/03 02:22:04;;;;;;;8.80;2.78;;;;;;;8.79;100.00;102645.19;6085790;19;20359;-72
2024/02/03 02:24:10;;;;;;;6.60;2.75;;;;;;;8.81;100.00;102654.78;6087465;19;20011;-72
2024/02/03 02:26:15;;;;;;;6.55;2.45;;;;;;;8.84;100.00;102650.38;6083268;19;20473;-73
2024/02/03 02:28:20;;;;;;;5.97;2.45;;;;;;;8.77;100.00;102652.16;6084163;19;20467;-74
2024/02/03 02:30:22;;;;;;;10.63;2.85;;;;;;;8.75;100.00;102656.53;6076893;19;20078;-72
2024/02/03 02:32:31;;;;;;;15.02;4.22;;;;;;;8.81;100.00;102652.16;6084508;19;20030;-73
2024/02/03 02:34:38;;;;;;;10.07;3.38;;;;;;;8.79;100.00;102645.19;6085258;19;20385;-74
2024/02/03 02:36:44;;;;;;;11.43;3.78;;;;;;;8.78;100.00;102642.53;6084563;19;20011;-72
2024/02/03 02:38:51;;;;;;;9.25;3.60;;;;;;;8.75;100.00;102638.19;6082825;19;20059;-73
2024/02/03 02:40:57;;;;;;;7.22;2.88;;;;;;;8.78;100.00;102639.94;6084815;19;20086;-72
2024/02/03 02:43:04;;;;;;;11.02;3.20;;;;;;;8.78;100.00;102635.53;6086042;19;20110;-73
2024/02/03 02:45:12;;;;;;;15.50;2.95;;;;;;;8.77;100.00;102641.69;6085889;19;20546;-73
2024/02/03 02:47:17;;;;;;;8.60;2.83;;;;;;;8.77;100.00;102636.44;6085269;19;20452;-73
2024/02/03 02:49:20;;;;;;;8.95;2.92;;;;;;;8.72;100.00;102630.34;6084204;19;20044;-73
2024/02/03 02:51:25;;;;;;;8.35;2.50;;;;;;;8.75;100.00;102638.19;6082025;19;20003;-73
2024/02/03 02:53:30;;;;;;;16.98;3.40;;;;;;;8.77;100.00;102633.81;6082103;19;20519;-73
2024/02/03 02:55:38;;;;;;;5.97;2.63;;;;;;;8.77;100.00;102630.34;6086570;19;20003;-73
2024/02/03 02:57:42;;;;;;;8.18;2.42;;;;;;;8.74;100.00;102633.84;6085346;19;20019;-72
2024/02/03 02:59:47;;;;;;;13.45;3.20;;;;;;;8.77;100.00;102635.56;6083743;19;20019;-71
2024/02/03 03:01:52;;;;;;;16.52;3.63;;;;;;;8.76;100.00;102637.28;6083525;19;20006;-74
2024/02/03 03:03:58;;;;;;;10.13;3.60;;;;;;;8.73;100.00;102633.81;6085180;19;20003;-72
2024/02/03 03:06:03;;;;;;;9.98;2.78;;;;;;;8.73;100.00;102629.44;6084285;19;20508;-72
2024/02/03 03:08:06;;;;;;;11.82;2.80;;;;;;;8.79;100.00;102629.44;6080295;19;20014;-72
2024/02/03 03:10:12;;;;;;;9.90;3.28;;;;;;;8.83;100.00;102632.91;6085402;19;20007;-72
2024/02/03 03:12:20;;;;;;;8.18;2.72;;;;;;;8.85;100.00;102632.91;6084320;19;20002;-72
2024/02/03 03:14:27;;;;;;;7.57;3.78;;;;;;;8.79;100.00;102629.44;6083108;19;20003;-72
2024/02/03 03:16:30;;;;;;;9.65;3.03;;;;;;;8.84;100.00;102631.16;6083735;19;20448;-74
2024/02/03 03:18:35;;;;;;;13.65;2.88;;;;;;;8.84;100.00;102621.53;6083066;19;20047;-72
2024/02/03 03:20:41;;;;;;;8.05;2.67;;;;;;;8.80;100.00;102617.22;6083741;19;20030;-72
2024/02/03 03:22:48;;;;;;;8.65;2.47;;;;;;;8.84;100.00;102615.44;6083012;19;20011;-72
2024/02/03 03:24:53;;;;;;;8.23;2.70;;;;;;;8.91;100.00;102614.53;6082977;19;20004;-72
2024/02/03 03:26:59;;;;;;;12.43;2.35;;;;;;;8.87;100.00;102613.66;6083368;19;20019;-72
2024/02/03 03:29:07;;;;;;;6.07;2.00;;;;;;;8.86;100.00;102609.31;6083587;19;20172;-73
2024/02/03 03:31:12;;;;;;;12.73;2.85;;;;;;;8.88;100.00;102611.94;6082706;19;20007;-71
2024/02/03 03:33:17;;;;;;;8.98;3.10;;;;;;;8.88;100.00;102622.41;6083032;19;20018;-72
2024/02/03 03:35:22;;;;;;;7.63;2.00;;;;;;;8.89;100.00;102619.78;6084545;19;20447;-72
2024/02/03 03:37:31;;;;;;;11.38;2.83;;;;;;;8.89;100.00;102618.91;6083788;19;20332;-72
2024/02/03 03:39:36;;;;;;;10.77;2.85;;;;;;;8.92;100.00;102603.16;6084812;19;20505;-71
2024/02/03 03:41:41;;;;;;;10.02;2.60;;;;;;;8.90;100.00;102610.16;6085882;19;20066;-71
2024/02/03 03:43:45;;;;;;;5.97;2.17;;;;;;;8.92;100.00;102622.38;6082948;19;20049;-73
2024/02/03 03:45:53;;;;;;;11.95;2.30;;;;;;;8.92;100.00;102616.25;6083606;19;20006;-72
2024/02/03 03:47:59;;;;;;;9.57;3.13;;;;;;;8.95;100.00;102619.75;6084610;19;20077;-73
2024/02/03 03:50:04;;;;;;;15.13;2.90;;;;;;;8.94;100.00;102615.38;6084480;19;20011;-73
2024/02/03 03:52:09;;;;;;;8.40;2.25;;;;;;;8.94;100.00;102618.00;6085621;19;20552;-73
2024/02/03 03:54:14;;;;;;;8.20;2.58;;;;;;;9.02;100.00;102612.72;6083179;19;20543;-73
2024/02/03 03:56:19;;;;;;;6.78;2.70;;;;;;;9.00;100.00;102604.88;6083668;19;20140;-72
2024/02/03 03:58:25;;;;;;;8.52;3.25;;;;;;;8.99;100.00;102597.00;6086471;19;20044;-72
2024/02/03 04:00:30;;;;;;;11.60;3.03;;;;;;;9.02;100.00;102604.84;6085973;19;20007;-72
2024/02/03 04:02:39;;;;;;;9.55;2.40;;;;;;;9.05;100.00;102604.81;6079044;19;20011;-72
2024/02/03 04:04:44;;;;;;;9.23;2.60;;;;;;;9.07;100.00;102607.44;6085067;19;20081;-73
2024/02/03 04:06:49;;;;;;;9.73;2.50;;;;;;;9.07;100.00;102597.81;6076857;19;20017;-73
2024/02/03 04:08:54;;;;;;;11.82;2.55;;;;;;;9.08;100.00;102603.94;6081883;19;20039;-72
2024/02/03 04:11:00;;;;;;;9.18;2.60;;;;;;;9.05;100.00;102602.19;6082801;19;20078;-72
2024/02/03 04:13:05;;;;;;;11.70;2.60;;;;;;;9.04;100.00;102610.09;6083329;19;20017;-72
2024/02/03 04:15:10;;;;;;;6.72;1.85;;;;;;;9.04;100.00;102616.19;6083795;19;20003;-73
2024/02/03 04:17:16;;;;;;;4.47;2.00;;;;;;;9.07;100.00;102610.94;6085725;19;20015;-73
2024/02/03 04:19:23;;;;;;;7.47;2.70;;;;;;;9.10;100.00;102612.66;6079975;19;20007;-73
2024/02/03 04:21:31;;;;;;;4.88;2.80;;;;;;;9.10;100.00;102612.66;6083938;19;20350;-72
2024/02/03 04:23:36;;;;;;;7.15;1.83;;;;;;;9.07;100.00;102610.06;6081225;19;20007;-72
2024/02/03 04:25:41;;;;;;;10.18;2.20;;;;;;;9.10;100.00;102608.28;6081976;19;20039;-73
2024/02/03 04:27:46;;;;;;;8.15;2.05;;;;;;;9.10;100.00;102603.03;6080044;19;20003;-72
2024/02/03 04:29:51;;;;;;;11.88;2.65;;;;;;;9.12;100.00;102601.28;6080382;19;20101;-73
2024/02/03 04:31:56;;;;;;;9.23;2.63;;;;;;;9.07;100.00;102612.69;6081839;19;20018;-72
2024/02/03 04:34:01;;;;;;;8.07;2.83;;;;;;;9.06;100.00;102606.59;6081414;19;20079;-72
2024/02/03 04:36:10;;;;;;;6.50;2.30;;;;;;;9.07;100.00;102605.69;6079929;19;20010;-74
2024/02/03 04:38:15;;;;;;;3.53;1.88;;;;;;;9.12;100.00;102610.91;6083013;19;20007;-72
2024/02/03 04:40:21;;;;;;;9.15;2.78;;;;;;;9.07;100.00;102612.69;6083663;19;20022;-73
2024/02/03 04:42:26;;;;;;;5.28;1.95;;;;;;;9.01;100.00;102616.22;6082956;19;20483;-74
2024/02/03 04:44:31;;;;;;;7.45;2.63;;;;;;;9.01;100.00;102616.22;6080652;19;20015;-72
2024/02/03 04:46:36;;;;;;;6.85;2.60;;;;;;;9.04;100.00;102610.97;6080712;19;20007;-72
2024/02/03 04:48:42;;;;;;;10.40;2.33;;;;;;;9.05;100.00;102610.06;6081683;19;20010;-72
2024/02/03 04:50:47;;;;;;;7.50;2.67;;;;;;;9.13;100.00;102604.78;6080531;19;20133;-72
2024/02/03 04:52:55;;;;;;;5.55;2.38;;;;;;;9.07;100.00;102608.31;6074298;19;20513;-72
2024/02/03 04:55:00;;;;;;;8.27;3.15;;;;;;;9.06;100.00;102597.81;6080831;19;20014;-72
2024/02/03 04:57:05;;;;;;;11.18;2.67;;;;;;;9.04;100.00;102603.09;6081710;19;20039;-72
2024/02/03 04:59:07;;;;;;;10.98;2.33;;;;;;;9.08;100.00;102599.56;6080987;19;20011;-71
2024/02/03 05:01:12;;;;;;;3.00;2.00;;;;;;;9.09;100.00;102601.31;6076528;19;20000;-71
2024/02/03 05:03:17;;;;;;;6.80;1.98;;;;;;;9.09;100.00;102603.94;6080057;19;20010;-72
2024/02/03 05:05:22;;;;;;;9.98;2.53;;;;;;;9.07;100.00;102602.22;6081337;19;20034;-71
2024/02/03 05:07:31;;;;;;;6.18;2.05;;;;;;;9.06;100.00;102595.19;6079665;19;20003;-72
2024/02/03 05:09:36;;;;;;;9.15;2.67;;;;;;;9.02;100.00;102596.97;6080666;19;20070;-72
2024/02/03 05:11:42;;;;;;;5.47;2.25;;;;;;;9.01;100.00;102598.72;6080102;19;20011;-72
2024/02/03 05:13:44;;;;;;;8.20;1.90;;;;;;;8.99;100.00;102599.63;6082690;19;20007;-72
2024/02/03 05:15:49;;;;;;;3.80;1.80;;;;;;;8.99;100.00;102604.88;6086082;19;20428;-72
2024/02/03 05:17:51;;;;;;;10.38;2.50;;;;;;;9.00;100.00;102597.00;6088790;19;20057;-72
2024/02/03 05:19:56;;;;;;;12.75;3.88;;;;;;;9.00;100.00;102593.50;6086501;19;20467;-72
2024/02/03 05:22:01;;;;;;;8.20;2.25;;;;;;;8.94;100.00;102594.41;6087942;19;20500;-72
2024/02/03 05:24:07;;;;;;;8.88;3.03;;;;;;;8.93;100.00;102594.44;6087053;19;20015;-72
2024/02/03 05:26:15;;;;;;;12.70;2.33;;;;;;;8.93;100.00;102599.66;6087732;19;20014;-72
2024/02/03 05:28:20;;;;;;;10.45;2.22;;;;;;;8.99;100.00;102599.63;6084573;19;20748;-72
2024/02/03 05:30:25;;;;;;;10.00;2.78;;;;;;;8.99;100.00;102595.25;6088169;19;20011;-72
2024/02/03 05:32:32;;;;;;;9.27;3.03;;;;;;;8.98;100.00;102590.03;6086365;19;20756;-72
2024/02/03 05:34:37;;;;;;;10.73;2.83;;;;;;;8.98;100.00;102592.66;6087235;19;20007;-72
2024/02/03 05:36:45;;;;;;;9.13;2.35;;;;;;;8.95;100.00;102598.78;6087532;19;20003;-72
2024/02/03 05:38:50;;;;;;;7.72;2.63;;;;;;;8.97;100.00;102589.13;6086785;19;20011;-72
2024/02/03 05:40:56;;;;;;;8.20;2.75;;;;;;;8.98;100.00;102606.63;6086632;19;20074;-71
2024/02/03 05:43:04;;;;;;;6.68;2.45;;;;;;;9.01;100.00;102603.13;6086835;19;20473;-72
2024/02/03 05:45:10;;;;;;;11.05;2.60;;;;;;;8.95;100.00;102592.63;6084210;19;20109;-71
2024/02/03 05:47:15;;;;;;;8.20;2.95;;;;;;;8.96;100.00;102592.66;6086697;19;20037;-72
2024/02/03 05:49:20;;;;;;;8.23;2.00;;;;;;;8.90;100.00;102578.69;6086166;19;20743;-72
2024/02/03 05:51:25;;;;;;;9.00;2.65;;;;;;;8.87;100.00;102574.31;6084959;19;20025;-73
2024/02/03 05:53:34;;;;;;;7.70;2.63;;;;;;;8.91;100.00;102562.97;6082910;19;20025;-71
2024/02/03 05:55:40;;;;;;;12.35;2.42;;;;;;;8.94;100.00;102568.19;6084911;19;20038;-73
2024/02/03 05:57:55;;;;;;;4.07;2.10;;;;;;;8.95;100.00;102574.28;6084353;19;20010;-72
2024/02/03 06:00:05;;;;;;;9.90;2.00;;;;;;;8.92;100.00;102587.41;6084587;19;20010;-71
2024/02/03 06:02:10;;;;;;;10.35;2.90;;;;;;;9.00;100.00;102589.13;6087225;19;20920;-72
2024/02/03 06:04:15;;;;;;;8.32;2.67;;;;;;;9.01;100.00;102588.25;6086157;19;20027;-72
2024/02/03 06:06:20;;;;;;;15.90;2.25;;;;;;;9.05;100.00;102596.97;6087668;19;20003;-72
2024/02/03 06:08:35;;;;;;;5.10;2.00;;;;;;;9.01;100.00;102592.63;6086565;19;20022;-72
2024/02/03 06:10:40;;;;;;;9.35;3.17;;;;;;;9.02;100.00;102592.59;6086991;19;20003;-73
2024/02/03 06:12:45;;;;;;;11.23;2.50;;;;;;;9.03;100.00;102596.13;6086462;19;20488;-73
2024/02/03 06:14:50;;;;;;;10.40;3.13;;;;;;;9.03;100.00;102596.13;6085164;19;20021;-72
2024/02/03 06:16:58;;;;;;;7.50;2.72;;;;;;;9.01;100.00;102597.88;6085190;19;20108;-73
2024/02/03 06:19:03;;;;;;;11.27;2.40;;;;;;;8.98;100.00;102608.38;6078622;19;20415;-72
2024/02/03 06:21:08;;;;;;;9.13;2.78;;;;;;;9.01;100.00;102603.13;6084985;19;20086;-72
2024/02/03 06:23:11;;;;;;;9.63;2.83;;;;;;;8.95;100.00;102619.75;6085839;19;20032;-72
2024/02/03 06:25:16;;;;;;;13.70;2.85;;;;;;;9.00;100.00;102630.19;6085232;19;20011;-72
2024/02/03 06:27:21;;;;;;;10.32;2.75;;;;;;;8.94;100.00;102638.97;6084004;19;20090;-72
2024/02/03 06:29:24;;;;;;;8.95;3.20;;;;;;;9.00;100.00;102628.47;6086713;19;20420;-72
2024/02/03 06:31:31;;;;;;;11.00;3.00;;;;;;;8.99;100.00;102613.59;6087337;19;20062;-72
2024/02/03 06:33:39;;;;;;;9.82;2.90;;;;;;;8.99;100.00;102607.50;6087294;19;20196;-71
2024/02/03 06:35:42;;;;;;;12.63;2.97;;;;;;;8.99;100.00;102594.38;6086923;19;20558;-73
2024/02/03 06:37:47;;;;;;;5.95;2.63;;;;;;;8.95;100.00;102587.41;6087770;19;20022;-72
2024/02/03 06:39:52;;;;;;;8.93;3.05;;;;;;;8.95;100.00;102582.16;6087536;19;20038;-73
2024/02/03 06:41:54;;;;;;;6.85;2.67;;;;;;;8.97;100.00;102591.75;6084554;19;20933;-73
2024/02/03 06:44:02;;;;;;;8.10;2.85;;;;;;;8.97;100.00;102585.66;6085061;19;20016;-73
2024/02/03 06:46:08;;;;;;;7.88;3.00;;;;;;;8.94;100.00;102583.91;6085575;19;20010;-74
2024/02/03 06:48:13;;;;;;;10.45;2.55;;;;;;;8.93;100.00;102579.56;6087668;19;20614;-72
2024/02/03 06:50:21;;;;;;;9.02;2.97;;;;;;;8.92;100.00;102574.31;6084603;19;20003;-72
2024/02/03 06:52:27;;;;;;;6.78;2.95;;;;;;;8.88;100.00;102583.09;6085853;19;20010;-72
2024/02/03 06:54:32;;;;;;;14.18;4.28;;;;;;;8.87;100.00;102589.19;6086118;19;20785;-72
2024/02/03 06:56:40;;;;;;;8.82;2.97;;;;;;;8.86;100.00;102593.56;6087606;19;20011;-73
2024/02/03 06:58:44;;;;;;;10.98;2.70;;;;;;;8.88;100.00;102585.72;6086289;19;20665;-72
2024/02/03 07:00:49;;;;;;;7.78;2.72;;;;;;;8.83;100.00;102597.97;6086143;19;20003;-72
2024/02/03 07:02:54;;;;;;;12.77;3.47;;;;;;;8.83;100.00;102597.97;6085909;19;20283;-73
2024/02/03 07:05:00;;;;;;;8.02;2.92;;;;;;;8.85;100.00;102601.47;6087389;19;20039;-73
2024/02/03 07:07:09;;;;;;;12.75;2.95;;;;;;;8.85;100.00;102591.84;6079655;19;20413;-72
2024/02/03 07:09:15;;;;;;;18.35;3.95;;;;;;;8.86;100.00;102611.91;6085188;19;20006;-73
2024/02/03 07:11:20;;;;;;;8.57;2.95;;;;;;;8.85;100.00;102604.09;6081803;19;20070;-73
2024/02/03 07:13:25;;;;;;;9.13;3.05;;;;;;;8.84;100.00;102615.44;6085030;19;20024;-73
2024/02/03 07:15:31;;;;;;;11.27;2.55;;;;;;;8.84;100.00;102616.28;6084800;19;20021;-74
2024/02/03 07:17:36;;;;;;;7.60;2.58;;;;;;;8.83;100.00;102616.31;6083926;19;20003;-73
2024/02/03 07:19:41;;;;;;;12.43;3.53;;;;;;;8.83;100.00;102626.81;6082172;19;20851;-73
2024/02/03 07:21:46;;;;;;;10.77;2.92;;;;;;;8.85;100.00;102619.81;6083155;19;20006;-74
2024/02/03 07:23:54;;;;;;;9.02;2.85;;;;;;;8.85;100.00;102623.31;6083544;19;20017;-73
2024/02/03 07:25:57;;;;;;;6.95;2.58;;;;;;;8.83;100.00;102622.44;6085578;19;20472;-74
2024/02/03 07:28:02;;;;;;;10.73;3.10;;;;;;;8.85;100.00;102630.31;6085631;19;20047;-73
2024/02/03 07:30:09;;;;;;;11.60;3.28;;;;;;;8.86;100.00;102624.16;6083977;19;20028;-73
2024/02/03 07:32:14;;;;;;;10.70;2.53;;;;;;;8.89;100.00;102632.00;6085773;19;20021;-72
2024/02/03 07:34:16;;;;;;;9.45;2.58;;;;;;;8.90;100.00;102624.16;6083859;19;20021;-72
2024/02/03 07:36:21;;;;;;;6.38;1.98;;;;;;;8.87;100.00;102625.91;6082826;19;20051;-72
2024/02/03 07:38:26;;;;;;;13.38;3.05;;;;;;;8.86;100.00;102630.28;6080649;19;20023;-72
2024/02/03 07:40:34;;;;;;;9.73;2.75;;;;;;;8.88;100.00;102630.28;6085479;19;20500;-73
2024/02/03 07:42:39;;;;;;;4.70;2.33;;;;;;;8.88;100.00;102628.53;6083366;19;20020;-71
2024/02/03 07:44:44;;;;;;;9.82;2.88;;;;;;;8.90;100.00;102629.41;6082941;19;20365;-73
2024/02/03 07:46:49;;;;;;;16.35;3.65;;;;;;;8.91;100.00;102630.25;6081610;19;20483;-72
2024/02/03 07:48:54;;;;;;;7.65;2.90;;;;;;;8.93;100.00;102639.88;6083733;19;20012;-75
2024/02/03 07:51:02;;;;;;;12.00;2.28;;;;;;;8.92;100.00;102635.47;6081198;19;20007;-75
2024/02/03 07:53:08;;;;;;;9.68;2.70;;;;;;;8.94;100.00;102643.34;6082323;19;20024;-75
2024/02/03 07:55:13;;;;;;;9.27;3.03;;;;;;;8.91;100.00;102636.38;6083927;19;20006;-73
2024/02/03 07:57:21;;;;;;;8.52;3.38;;;;;;;8.95;100.00;102638.13;6083944;19;20002;-73
2024/02/03 07:59:26;;;;;;;9.52;2.70;;;;;;;8.95;100.00;102645.09;6082948;19;20429;-75
2024/02/03 08:01:31;;;;;;;12.25;3.05;;;;;;;8.92;100.00;102651.22;6082692;19;20007;-74
2024/02/03 08:03:36;;;;;;;12.02;2.60;;;;;;;8.92;100.00;102645.09;6081008;19;20034;-74
2024/02/03 08:05:39;;;;;;;11.50;3.38;;;;;;;8.91;100.00;102654.72;6083986;19;20032;-74
2024/02/03 08:07:47;;;;;;;12.43;3.42;;;;;;;8.89;100.00;102653.84;6081598;19;20021;-73
2024/02/03 08:09:52;;;;;;;5.75;2.45;;;;;;;8.90;100.00;102654.72;6080922;19;20126;-73
2024/02/03 08:11:59;;;;;;;11.82;2.95;;;;;;;8.95;100.00;102653.84;6083266;19;20002;-74
2024/02/03 08:14:06;;;;;;;10.20;3.67;;;;;;;8.95;100.00;102647.69;6084136;19;20007;-74
2024/02/03 08:16:11;;;;;;;9.75;2.20;;;;;;;8.95;100.00;102661.72;6084301;19;20013;-74
2024/02/03 08:18:16;;;;;;;5.47;2.72;;;;;;;8.95;100.00;102655.56;6084483;19;20007;-74
2024/02/03 08:20:22;;;;;;;9.18;2.72;;;;;;;9.03;100.00;102648.56;6082321;19;20136;-73
2024/02/03 08:22:27;;;;;;;9.18;2.72;;;;;;;9.04;100.00;102649.44;6081833;19;20022;-73
2024/02/03 08:24:32;;;;;;;9.65;2.80;;;;;;;9.04;100.00;102650.28;6081146;19;20056;-74
2024/02/03 08:26:38;;;;;;;9.07;3.08;;;;;;;9.06;100.00;102643.31;6082992;19;20077;-73
2024/02/03 08:28:46;;;;;;;5.72;2.03;;;;;;;9.12;100.00;102652.88;6084096;19;20003;-73
2024/02/03 08:30:53;;;;;;;11.70;2.72;;;;;;;9.09;100.00;102648.53;6082506;19;20073;-74
2024/02/03 08:32:59;;;;;;;5.63;2.42;;;;;;;9.13;100.00;102649.38;6082529;19;20426;-74
2024/02/03 08:35:02;;;;;;;6.50;2.20;;;;;;;9.14;100.00;102644.13;6084719;19;20078;-74
2024/02/03 08:37:09;;;;;;;12.40;3.50;;;;;;;9.14;100.00;102638.88;6084274;19;20024;-73
2024/02/03 08:39:14;;;;;;;9.35;2.50;;;;;;;9.15;100.00;102635.38;6081741;19;20148;-74
2024/02/03 08:41:22;;;;;;;10.60;2.78;;;;;;;9.21;100.00;102639.69;6077753;19;20046;-74
2024/02/03 08:43:27;;;;;;;11.02;2.75;;;;;;;9.21;100.00;102632.69;6082085;19;20014;-74
2024/02/03 08:45:32;;;;;;;14.00;3.78;;;;;;;9.23;100.00;102624.84;6081386;19;20002;-73
2024/02/03 08:47:42;;;;;;;11.18;3.00;;;;;;;9.25;100.00;102625.69;6083846;19;20010;-74
2024/02/03 08:49:54;;;;;;;15.55;3.70;;;;;;;9.28;100.00;102625.69;6086752;19;20015;-73
2024/02/03 08:52:00;;;;;;;5.28;2.65;;;;;;;9.28;100.00;102614.31;6085103;19;20011;-74
2024/02/03 08:54:05;;;;;;;9.90;2.85;;;;;;;9.30;100.00;102623.91;6086887;19;20014;-74
2024/02/03 08:56:10;;;;;;;11.55;2.55;;;;;;;9.30;100.00;102620.44;6088764;19;20009;-74
2024/02/03 08:58:15;;;;;;;5.03;2.45;;;;;;;9.28;100.00;102624.81;6086142;19;20022;-74
2024/02/03 09:00:21;;;;;;;7.28;2.53;;;;;;;9.30;100.00;102630.91;6085914;19;20002;-74
2024/02/03 09:02:28;;;;;;;6.18;2.05;;;;;;;9.36;100.00;102636.13;6086180;19;20500;-74
2024/02/03 09:04:35;;;;;;;6.57;2.58;;;;;;;9.30;100.00;102633.53;6084800;19;20015;-71
2024/02/03 09:06:40;;;;;;;9.38;2.50;;;;;;;9.34;100.00;102635.25;6085196;19;20357;-73
2024/02/03 09:08:43;;;;;;;9.27;3.33;;;;;;;9.31;100.00;102630.03;6086032;19;20441;-74
2024/02/03 09:10:48;;;;;;;6.90;2.38;;;;;;;9.34;100.00;102625.63;6088376;19;20007;-74
2024/02/03 09:12:53;;;;;;;7.78;2.15;;;;;;;9.36;100.00;102621.25;6086834;19;20039;-74
2024/02/03 09:15:02;;;;;;;10.50;2.38;;;;;;;9.37;100.00;102622.09;6088118;19;20489;-71
2024/02/03 09:17:10;;;;;;;8.77;2.58;;;;;;;9.40;100.00;102627.31;6087761;19;20010;-73
2024/02/03 09:19:15;;;;;;;12.10;3.08;;;;;;;9.36;100.00;102617.75;6089004;19;20549;-72
2024/02/03 09:21:23;;;;;;;14.30;2.25;;;;;;;9.42;100.00;102618.56;6091082;19;20011;-73
2024/02/03 09:23:31;;;;;;;13.88;3.25;;;;;;;9.48;100.00;102615.06;6080515;19;20862;-74
2024/02/03 09:25:39;;;;;;;8.65;2.63;;;;;;;9.49;100.00;102613.28;6091241;19;20007;-73
2024/02/03 09:27:46;;;;;;;8.02;2.60;;;;;;;9.45;100.00;102612.44;6088346;19;20019;-73
2024/02/03 09:29:51;;;;;;;6.75;2.45;;;;;;;9.50;100.00;102618.50;6088117;19;20011;-72
2024/02/03 09:31:56;;;;;;;7.05;2.70;;;;;;;9.54;100.00;102615.00;6087971;19;20555;-73
2024/02/03 09:34:04;;;;;;;7.85;2.45;;;;;;;9.53;100.00;102621.13;6086694;19;20003;-75
2024/02/03 09:36:10;;;;;;;10.68;2.17;;;;;;;9.57;100.00;102628.09;6089509;19;20014;-71
2024/02/03 09:38:18;;;;;;;5.63;2.15;;;;;;;9.55;100.00;102621.97;6087704;19;20002;-72
2024/02/03 09:40:26;;;;;;;10.23;2.50;;;;;;;9.58;100.00;102627.19;6087928;19;20070;-73
2024/02/03 09:42:33;;;;;;;9.20;2.97;;;;;;;9.63;100.00;102629.78;6086462;19;20014;-75